createdAt,value
2019-04-11T18:16:50.326Z,68.60
2019-04-11T18:19:18.125Z,69.00
2019-04-11T18:21:46.609Z,67.20
2019-04-11T18:24:14.077Z,65.80
2019-04-11T18:26:41.582Z,64.60
2019-04-11T18:29:09.646Z,64.60
2019-04-11T18:31:37.150Z,64.10
2019-04-11T18:34:04.746Z,63.50
2019-04-11T18:36:32.574Z,63.50
2019-04-11T18:39:05.627Z,62.90
2019-04-11T18:41:29.686Z,63.20
2019-04-11T18:43:57.205Z,62.60
2019-04-11T18:46:24.867Z,62.60
2019-04-11T18:48:54.475Z,62.10
2019-04-11T18:51:23.223Z,62.10
2019-04-11T18:53:51.349Z,61.40
2019-04-11T18:56:19.047Z,60.90
2019-04-11T18:58:46.788Z,61.40
2019-04-11T19:01:17.969Z,62.10
2019-04-11T19:03:45.844Z,62.00
2019-04-11T19:06:13.802Z,62.40
2019-04-11T19:08:43.485Z,62.00
2019-04-11T19:11:15.392Z,62.50
2019-04-11T19:13:41.786Z,62.30
2019-04-11T19:16:09.619Z,62.70
2019-04-11T19:18:37.383Z,62.90
2019-04-11T19:21:05.078Z,62.30
2019-04-11T19:23:33.249Z,62.70
2019-04-11T19:26:01.053Z,63.00
2019-04-11T19:28:29.142Z,62.70
2019-04-11T19:30:57.740Z,62.70
2019-04-11T19:33:25.394Z,62.40
2019-04-11T19:35:53.215Z,63.00
2019-04-11T19:38:25.873Z,62.60
2019-04-11T19:40:55.534Z,63.30
2019-04-11T19:43:22.898Z,63.00
2019-04-11T19:45:50.560Z,63.20
2019-04-11T19:48:18.188Z,63.90
2019-04-11T19:50:45.769Z,63.80
2019-04-11T19:53:13.422Z,63.60
2019-04-11T19:56:18.535Z,63.20
2019-04-11T19:58:46.085Z,62.70
2019-04-11T20:01:13.619Z,63.20
2019-04-11T20:03:41.505Z,63.00
2019-04-11T20:06:09.380Z,63.20
2019-04-11T20:08:36.831Z,63.60
2019-04-11T20:11:04.617Z,63.60
2019-04-11T20:13:32.882Z,63.80
2019-04-11T20:16:00.698Z,63.90
2019-04-11T20:18:28.993Z,64.20
2019-04-11T20:20:57.090Z,64.00
2019-04-11T20:23:25.054Z,64.10
2019-04-11T20:25:52.754Z,64.10
2019-04-11T20:28:20.876Z,63.90
2019-04-11T20:30:49.876Z,63.70
2019-04-11T20:33:26.635Z,64.00
2019-04-11T20:35:47.799Z,64.40
2019-04-11T20:38:17.662Z,64.40
2019-04-11T20:40:46.459Z,64.00
2019-04-11T20:43:14.046Z,64.40
2019-04-11T20:45:44.540Z,64.20
2019-04-11T20:48:13.755Z,64.00
2019-04-11T20:50:41.667Z,64.20
2019-04-11T20:53:12.828Z,64.90
2019-04-11T20:55:39.995Z,65.20
2019-04-11T20:58:10.415Z,64.40
2019-04-11T21:00:49.683Z,64.80
2019-04-11T21:03:07.223Z,65.20
2019-04-11T21:05:34.941Z,64.30
2019-04-11T21:08:03.082Z,64.40
2019-04-11T21:10:31.968Z,64.60
2019-04-11T21:13:01.039Z,64.30
2019-04-11T21:15:28.977Z,64.90
2019-04-11T21:17:56.958Z,65.00
2019-04-11T21:20:24.635Z,65.00
2019-04-11T21:22:53.979Z,65.20
2019-04-11T21:25:21.581Z,65.90
2019-04-11T21:27:49.127Z,65.90
2019-04-11T21:30:17.202Z,65.70
2019-04-11T21:32:44.781Z,66.00
2019-04-11T21:35:12.351Z,66.10
2019-04-11T21:37:39.900Z,65.60
2019-04-11T21:40:11.466Z,66.30
2019-04-11T21:42:44.150Z,66.00
2019-04-11T21:45:31.177Z,66.30
2019-04-11T21:47:59.039Z,66.40
2019-04-11T21:50:26.554Z,66.50
2019-04-11T21:52:54.093Z,66.40
2019-04-11T21:55:21.621Z,66.60
2019-04-11T21:57:49.626Z,66.60
2019-04-11T22:00:24.443Z,67.00
2019-04-11T22:02:54.504Z,66.40
2019-04-11T22:05:21.544Z,66.60
2019-04-11T22:07:49.046Z,66.30
2019-04-11T22:10:17.111Z,66.60
2019-04-11T22:12:44.633Z,66.90
2019-04-11T22:15:12.589Z,66.80
2019-04-11T22:17:42.904Z,67.00
2019-04-11T22:20:10.003Z,67.40
2019-04-11T22:22:37.535Z,66.70
2019-04-11T22:25:05.377Z,66.20
2019-04-11T22:27:32.892Z,66.50
2019-04-11T22:30:00.459Z,65.40
2019-04-11T22:32:27.983Z,65.80
2019-04-11T22:34:56.782Z,66.80
2019-04-11T22:37:24.782Z,66.90
2019-04-11T22:39:52.333Z,66.70
2019-04-11T22:42:19.873Z,67.10
2019-04-11T22:44:47.367Z,65.60
2019-04-11T22:47:15.372Z,65.70
2019-04-11T22:49:42.904Z,66.40
2019-04-11T22:52:11.306Z,66.40
2019-04-11T22:54:41.191Z,67.00
2019-04-11T22:57:11.889Z,65.60
2019-04-11T22:59:38.644Z,65.60
2019-04-11T23:02:34.693Z,64.60
2019-04-11T23:05:02.209Z,65.10
2019-04-11T23:07:29.645Z,65.30
2019-04-11T23:09:57.255Z,66.60
2019-04-11T23:12:24.780Z,66.70
2019-04-11T23:14:52.320Z,66.60
2019-04-11T23:17:19.877Z,66.20
2019-04-11T23:19:47.371Z,66.50
2019-04-11T23:22:14.876Z,66.60
2019-04-11T23:24:42.409Z,67.00
2019-04-11T23:27:09.850Z,66.80
2019-04-11T23:29:37.341Z,66.90
2019-04-11T23:32:04.836Z,67.20
2019-04-11T23:34:32.389Z,68.00
2019-04-11T23:36:59.925Z,67.60
2019-04-11T23:39:27.439Z,67.70
2019-04-11T23:41:54.940Z,67.40
2019-04-11T23:44:22.424Z,66.70
2019-04-11T23:46:52.097Z,66.50
2019-04-11T23:49:19.425Z,66.60
2019-04-11T23:51:46.928Z,66.20
2019-04-11T23:54:22.728Z,66.40
2019-04-11T23:56:43.762Z,66.60
2019-04-11T23:59:11.260Z,66.70
